sensor_id;sensor_type;location;lat;lon;timestamp;P1;durP1;ratioP1;P2;durP2;ratioP2
67839;SDS011;54636;51.684;5.142;2023-02-05T00:01:56;46.55;;;27.80;;
67839;SDS011;54636;51.684;5.142;2023-02-05T00:04:21;48.42;;;27.85;;
67839;SDS011;54636;51.684;5.142;2023-02-05T00:06:46;50.47;;;28.52;;
67839;SDS011;54636;51.684;5.142;2023-02-05T00:09:13;36.55;;;26.17;;
67839;SDS011;54636;51.684;5.142;2023-02-05T00:11:38;45.60;;;27.20;;
67839;SDS011;54636;51.684;5.142;2023-02-05T00:14:04;45.92;;;27.20;;
67839;SDS011;54636;51.684;5.142;2023-02-05T00:16:29;42.85;;;27.08;;
67839;SDS011;54636;51.684;5.142;2023-02-05T00:18:55;38.70;;;24.20;;
67839;SDS011;54636;51.684;5.142;2023-02-05T00:21:21;38.90;;;23.77;;
67839;SDS011;54636;51.684;5.142;2023-02-05T00:23:47;37.55;;;24.75;;
67839;SDS011;54636;51.684;5.142;2023-02-05T00:26:14;39.90;;;25.20;;
67839;SDS011;54636;51.684;5.142;2023-02-05T00:28:39;33.90;;;23.77;;
67839;SDS011;54636;51.684;5.142;2023-02-05T00:31:06;41.45;;;25.70;;
67839;SDS011;54636;51.684;5.142;2023-02-05T00:33:34;46.50;;;25.55;;
67839;SDS011;54636;51.684;5.142;2023-02-05T00:35:59;42.28;;;23.55;;
67839;SDS011;54636;51.684;5.142;2023-02-05T00:38:24;36.65;;;24.02;;
67839;SDS011;54636;51.684;5.142;2023-02-05T00:40:50;32.63;;;21.88;;
67839;SDS011;54636;51.684;5.142;2023-02-05T00:43:15;39.92;;;24.55;;
67839;SDS011;54636;51.684;5.142;2023-02-05T00:45:40;37.25;;;25.08;;
67839;SDS011;54636;51.684;5.142;2023-02-05T00:48:06;38.20;;;25.25;;
67839;SDS011;54636;51.684;5.142;2023-02-05T00:50:32;36.50;;;24.05;;
67839;SDS011;54636;51.684;5.142;2023-02-05T00:52:58;39.83;;;24.90;;
67839;SDS011;54636;51.684;5.142;2023-02-05T00:55:24;41.78;;;24.77;;
67839;SDS011;54636;51.684;5.142;2023-02-05T00:57:49;36.53;;;23.52;;
67839;SDS011;54636;51.684;5.142;2023-02-05T01:00:15;37.38;;;23.85;;
67839;SDS011;54636;51.684;5.142;2023-02-05T01:02:41;36.15;;;24.17;;
67839;SDS011;54636;51.684;5.142;2023-02-05T01:05:06;32.67;;;23.63;;
67839;SDS011;54636;51.684;5.142;2023-02-05T01:07:32;37.25;;;24.77;;
67839;SDS011;54636;51.684;5.142;2023-02-05T01:09:58;36.30;;;23.63;;
67839;SDS011;54636;51.684;5.142;2023-02-05T01:12:23;41.63;;;25.02;;
67839;SDS011;54636;51.684;5.142;2023-02-05T01:14:49;37.95;;;24.85;;
67839;SDS011;54636;51.684;5.142;2023-02-05T01:17:15;40.60;;;25.33;;
67839;SDS011;54636;51.684;5.142;2023-02-05T01:19:40;40.10;;;25.02;;
67839;SDS011;54636;51.684;5.142;2023-02-05T01:22:06;35.40;;;24.23;;
67839;SDS011;54636;51.684;5.142;2023-02-05T01:24:31;36.85;;;25.23;;
67839;SDS011;54636;51.684;5.142;2023-02-05T01:26:57;35.85;;;24.65;;
67839;SDS011;54636;51.684;5.142;2023-02-05T01:29:26;39.40;;;25.65;;
67839;SDS011;54636;51.684;5.142;2023-02-05T01:31:51;36.28;;;24.83;;
67839;SDS011;54636;51.684;5.142;2023-02-05T01:34:17;39.28;;;25.85;;
67839;SDS011;54636;51.684;5.142;2023-02-05T01:36:43;41.80;;;25.58;;
67839;SDS011;54636;51.684;5.142;2023-02-05T01:39:09;42.40;;;25.70;;
67839;SDS011;54636;51.684;5.142;2023-02-05T01:41:34;39.25;;;24.73;;
67839;SDS011;54636;51.684;5.142;2023-02-05T01:46:31;34.03;;;19.98;;
67839;SDS011;54636;51.684;5.142;2023-02-05T01:48:58;43.38;;;24.75;;
67839;SDS011;54636;51.684;5.142;2023-02-05T01:51:25;43.05;;;25.95;;
67839;SDS011;54636;51.684;5.142;2023-02-05T01:53:54;43.08;;;26.48;;
67839;SDS011;54636;51.684;5.142;2023-02-05T01:57:03;35.38;;;23.58;;
67839;SDS011;54636;51.684;5.142;2023-02-05T01:59:18;38.75;;;24.67;;
67839;SDS011;54636;51.684;5.142;2023-02-05T02:01:45;41.55;;;24.05;;
67839;SDS011;54636;51.684;5.142;2023-02-05T02:04:11;39.60;;;24.67;;
67839;SDS011;54636;51.684;5.142;2023-02-05T02:06:41;43.65;;;25.30;;
67839;SDS011;54636;51.684;5.142;2023-02-05T02:09:06;39.03;;;25.33;;
67839;SDS011;54636;51.684;5.142;2023-02-05T02:11:34;35.80;;;23.08;;
67839;SDS011;54636;51.684;5.142;2023-02-05T02:14:04;26.80;;;16.98;;
67839;SDS011;54636;51.684;5.142;2023-02-05T02:16:33;36.70;;;23.42;;
67839;SDS011;54636;51.684;5.142;2023-02-05T02:19:01;38.03;;;22.98;;
67839;SDS011;54636;51.684;5.142;2023-02-05T02:29:36;32.10;;;20.48;;
67839;SDS011;54636;51.684;5.142;2023-02-05T02:32:15;37.03;;;21.05;;
67839;SDS011;54636;51.684;5.142;2023-02-05T02:34:44;34.42;;;19.83;;
67839;SDS011;54636;51.684;5.142;2023-02-05T02:37:36;32.35;;;20.38;;
67839;SDS011;54636;51.684;5.142;2023-02-05T02:40:08;35.55;;;19.98;;
67839;SDS011;54636;51.684;5.142;2023-02-05T02:42:38;34.95;;;20.38;;
67839;SDS011;54636;51.684;5.142;2023-02-05T02:45:09;25.40;;;16.52;;
67839;SDS011;54636;51.684;5.142;2023-02-05T02:47:48;24.92;;;17.35;;
67839;SDS011;54636;51.684;5.142;2023-02-05T02:53:03;26.08;;;15.88;;
67839;SDS011;54636;51.684;5.142;2023-02-05T02:55:35;28.40;;;15.52;;
67839;SDS011;54636;51.684;5.142;2023-02-05T02:58:03;25.77;;;14.95;;
67839;SDS011;54636;51.684;5.142;2023-02-05T03:00:33;22.13;;;14.50;;
67839;SDS011;54636;51.684;5.142;2023-02-05T03:03:04;23.38;;;12.52;;
67839;SDS011;54636;51.684;5.142;2023-02-05T03:05:33;17.45;;;11.85;;
67839;SDS011;54636;51.684;5.142;2023-02-05T03:08:02;16.25;;;11.63;;
67839;SDS011;54636;51.684;5.142;2023-02-05T03:10:34;21.35;;;11.27;;
67839;SDS011;54636;51.684;5.142;2023-02-05T03:13:01;19.17;;;11.35;;
67839;SDS011;54636;51.684;5.142;2023-02-05T03:15:26;16.75;;;11.25;;
67839;SDS011;54636;51.684;5.142;2023-02-05T03:17:52;16.70;;;10.63;;
67839;SDS011;54636;51.684;5.142;2023-02-05T03:23:34;14.88;;;8.90;;
67839;SDS011;54636;51.684;5.142;2023-02-05T03:26:00;14.40;;;8.73;;
67839;SDS011;54636;51.684;5.142;2023-02-05T03:28:25;13.25;;;7.55;;
67839;SDS011;54636;51.684;5.142;2023-02-05T03:30:56;20.98;;;7.95;;
67839;SDS011;54636;51.684;5.142;2023-02-05T03:41:44;8.80;;;3.88;;
67839;SDS011;54636;51.684;5.142;2023-02-05T03:46:56;14.98;;;4.07;;
67839;SDS011;54636;51.684;5.142;2023-02-05T03:49:36;5.03;;;3.63;;
67839;SDS011;54636;51.684;5.142;2023-02-05T03:52:18;7.07;;;4.13;;
67839;SDS011;54636;51.684;5.142;2023-02-05T03:54:50;5.53;;;4.05;;
67839;SDS011;54636;51.684;5.142;2023-02-05T03:57:19;10.35;;;5.00;;
67839;SDS011;54636;51.684;5.142;2023-02-05T03:59:50;8.98;;;5.68;;
67839;SDS011;54636;51.684;5.142;2023-02-05T04:02:17;12.23;;;5.30;;
67839;SDS011;54636;51.684;5.142;2023-02-05T04:04:43;7.95;;;5.13;;
67839;SDS011;54636;51.684;5.142;2023-02-05T04:07:09;8.00;;;5.35;;
67839;SDS011;54636;51.684;5.142;2023-02-05T04:09:35;7.32;;;5.05;;
67839;SDS011;54636;51.684;5.142;2023-02-05T04:12:00;8.02;;;5.20;;
67839;SDS011;54636;51.684;5.142;2023-02-05T04:14:26;8.80;;;5.85;;
67839;SDS011;54636;51.684;5.142;2023-02-05T04:16:51;5.32;;;4.82;;
67839;SDS011;54636;51.684;5.142;2023-02-05T04:19:17;10.15;;;5.28;;
67839;SDS011;54636;51.684;5.142;2023-02-05T04:21:42;7.28;;;5.50;;
67839;SDS011;54636;51.684;5.142;2023-02-05T04:24:07;9.80;;;4.15;;
67839;SDS011;54636;51.684;5.142;2023-02-05T04:26:33;7.78;;;5.32;;
67839;SDS011;54636;51.684;5.142;2023-02-05T04:28:58;7.18;;;4.75;;
67839;SDS011;54636;51.684;5.142;2023-02-05T04:31:24;7.03;;;5.03;;
67839;SDS011;54636;51.684;5.142;2023-02-05T04:33:49;12.23;;;4.50;;
67839;SDS011;54636;51.684;5.142;2023-02-05T04:36:14;4.22;;;3.55;;
67839;SDS011;54636;51.684;5.142;2023-02-05T04:38:40;9.35;;;3.35;;
67839;SDS011;54636;51.684;5.142;2023-02-05T04:41:05;10.77;;;5.13;;
67839;SDS011;54636;51.684;5.142;2023-02-05T04:43:32;9.48;;;5.07;;
67839;SDS011;54636;51.684;5.142;2023-02-05T04:45:57;9.52;;;5.32;;
67839;SDS011;54636;51.684;5.142;2023-02-05T04:48:22;11.15;;;5.55;;
67839;SDS011;54636;51.684;5.142;2023-02-05T04:50:48;14.85;;;6.20;;
67839;SDS011;54636;51.684;5.142;2023-02-05T04:53:13;9.00;;;7.10;;
67839;SDS011;54636;51.684;5.142;2023-02-05T04:55:39;13.93;;;6.72;;
67839;SDS011;54636;51.684;5.142;2023-02-05T04:58:04;10.43;;;7.43;;
67839;SDS011;54636;51.684;5.142;2023-02-05T05:00:29;11.98;;;6.25;;
67839;SDS011;54636;51.684;5.142;2023-02-05T05:02:55;14.10;;;6.50;;
67839;SDS011;54636;51.684;5.142;2023-02-05T05:05:21;19.38;;;7.68;;
67839;SDS011;54636;51.684;5.142;2023-02-05T05:07:46;14.43;;;7.35;;
67839;SDS011;54636;51.684;5.142;2023-02-05T05:10:12;18.08;;;7.22;;
67839;SDS011;54636;51.684;5.142;2023-02-05T05:12:38;14.15;;;7.38;;
67839;SDS011;54636;51.684;5.142;2023-02-05T05:15:03;14.18;;;6.70;;
67839;SDS011;54636;51.684;5.142;2023-02-05T05:17:30;21.42;;;8.40;;
67839;SDS011;54636;51.684;5.142;2023-02-05T05:19:56;8.82;;;7.55;;
67839;SDS011;54636;51.684;5.142;2023-02-05T05:22:22;13.70;;;7.75;;
67839;SDS011;54636;51.684;5.142;2023-02-05T05:24:47;12.25;;;7.38;;
67839;SDS011;54636;51.684;5.142;2023-02-05T05:27:12;15.95;;;7.07;;
67839;SDS011;54636;51.684;5.142;2023-02-05T05:29:38;8.38;;;6.75;;
67839;SDS011;54636;51.684;5.142;2023-02-05T05:32:03;7.20;;;5.70;;
67839;SDS011;54636;51.684;5.142;2023-02-05T05:34:29;10.65;;;6.47;;
67839;SDS011;54636;51.684;5.142;2023-02-05T05:36:55;9.13;;;5.30;;
67839;SDS011;54636;51.684;5.142;2023-02-05T05:39:20;4.10;;;3.80;;
67839;SDS011;54636;51.684;5.142;2023-02-05T05:42:05;2.88;;;2.60;;
67839;SDS011;54636;51.684;5.142;2023-02-05T05:44:49;3.33;;;2.10;;
67839;SDS011;54636;51.684;5.142;2023-02-05T05:47:16;2.47;;;1.70;;
67839;SDS011;54636;51.684;5.142;2023-02-05T05:49:42;5.57;;;1.70;;
67839;SDS011;54636;51.684;5.142;2023-02-05T05:52:08;2.33;;;1.85;;
67839;SDS011;54636;51.684;5.142;2023-02-05T05:54:34;1.75;;;1.10;;
67839;SDS011;54636;51.684;5.142;2023-02-05T05:56:59;4.45;;;1.52;;
67839;SDS011;54636;51.684;5.142;2023-02-05T05:59:25;3.58;;;1.20;;
67839;SDS011;54636;51.684;5.142;2023-02-05T06:01:50;5.35;;;1.50;;
67839;SDS011;54636;51.684;5.142;2023-02-05T06:04:16;5.95;;;1.63;;
67839;SDS011;54636;51.684;5.142;2023-02-05T06:06:41;3.58;;;0.98;;
67839;SDS011;54636;51.684;5.142;2023-02-05T06:09:07;14.27;;;1.67;;
67839;SDS011;54636;51.684;5.142;2023-02-05T06:11:32;8.57;;;1.45;;
67839;SDS011;54636;51.684;5.142;2023-02-05T06:13:58;10.88;;;1.98;;
67839;SDS011;54636;51.684;5.142;2023-02-05T06:16:23;10.85;;;2.00;;
67839;SDS011;54636;51.684;5.142;2023-02-05T06:18:48;13.55;;;1.95;;
67839;SDS011;54636;51.684;5.142;2023-02-05T06:21:14;13.07;;;2.33;;
67839;SDS011;54636;51.684;5.142;2023-02-05T06:23:39;9.77;;;2.03;;
67839;SDS011;54636;51.684;5.142;2023-02-05T06:26:04;22.08;;;2.42;;
67839;SDS011;54636;51.684;5.142;2023-02-05T06:28:30;10.30;;;1.83;;
67839;SDS011;54636;51.684;5.142;2023-02-05T06:30:55;9.10;;;1.63;;
67839;SDS011;54636;51.684;5.142;2023-02-05T06:33:21;17.25;;;2.30;;
67839;SDS011;54636;51.684;5.142;2023-02-05T06:35:46;7.70;;;1.45;;
67839;SDS011;54636;51.684;5.142;2023-02-05T06:38:11;13.80;;;1.95;;
67839;SDS011;54636;51.684;5.142;2023-02-05T06:40:37;7.93;;;1.55;;
67839;SDS011;54636;51.684;5.142;2023-02-05T06:43:02;9.75;;;1.33;;
67839;SDS011;54636;51.684;5.142;2023-02-05T06:45:28;9.52;;;1.45;;
67839;SDS011;54636;51.684;5.142;2023-02-05T06:47:53;9.88;;;1.63;;
67839;SDS011;54636;51.684;5.142;2023-02-05T06:50:20;6.32;;;1.70;;
67839;SDS011;54636;51.684;5.142;2023-02-05T06:52:46;5.15;;;1.15;;
67839;SDS011;54636;51.684;5.142;2023-02-05T06:55:12;11.40;;;1.88;;
67839;SDS011;54636;51.684;5.142;2023-02-05T06:57:38;12.80;;;1.42;;
67839;SDS011;54636;51.684;5.142;2023-02-05T07:00:04;8.27;;;1.60;;
67839;SDS011;54636;51.684;5.142;2023-02-05T07:02:30;6.15;;;1.33;;
67839;SDS011;54636;51.684;5.142;2023-02-05T07:04:56;6.32;;;1.58;;
67839;SDS011;54636;51.684;5.142;2023-02-05T07:07:21;10.25;;;2.10;;
67839;SDS011;54636;51.684;5.142;2023-02-05T07:09:46;5.22;;;1.30;;
67839;SDS011;54636;51.684;5.142;2023-02-05T07:12:12;13.30;;;1.98;;
67839;SDS011;54636;51.684;5.142;2023-02-05T07:14:37;4.57;;;1.15;;
67839;SDS011;54636;51.684;5.142;2023-02-05T07:17:04;13.18;;;2.15;;
67839;SDS011;54636;51.684;5.142;2023-02-05T07:19:29;9.68;;;1.60;;
67839;SDS011;54636;51.684;5.142;2023-02-05T07:21:55;10.75;;;1.85;;
67839;SDS011;54636;51.684;5.142;2023-02-05T07:24:20;9.95;;;1.45;;
67839;SDS011;54636;51.684;5.142;2023-02-05T07:26:45;5.75;;;1.25;;
67839;SDS011;54636;51.684;5.142;2023-02-05T07:29:11;6.47;;;1.40;;
67839;SDS011;54636;51.684;5.142;2023-02-05T07:31:36;13.40;;;2.25;;
67839;SDS011;54636;51.684;5.142;2023-02-05T07:34:02;17.63;;;2.03;;
67839;SDS011;54636;51.684;5.142;2023-02-05T07:36:27;9.55;;;1.90;;
67839;SDS011;54636;51.684;5.142;2023-02-05T07:38:53;9.43;;;1.60;;
67839;SDS011;54636;51.684;5.142;2023-02-05T07:41:18;13.75;;;1.92;;
67839;SDS011;54636;51.684;5.142;2023-02-05T07:43:44;17.42;;;2.35;;
67839;SDS011;54636;51.684;5.142;2023-02-05T07:46:10;7.82;;;2.00;;
67839;SDS011;54636;51.684;5.142;2023-02-05T07:48:37;8.60;;;1.70;;
67839;SDS011;54636;51.684;5.142;2023-02-05T07:51:03;9.15;;;1.60;;
67839;SDS011;54636;51.684;5.142;2023-02-05T07:53:29;12.80;;;1.73;;
67839;SDS011;54636;51.684;5.142;2023-02-05T07:55:54;15.98;;;2.58;;
67839;SDS011;54636;51.684;5.142;2023-02-05T07:58:20;14.35;;;2.25;;
67839;SDS011;54636;51.684;5.142;2023-02-05T08:00:46;15.88;;;2.47;;
67839;SDS011;54636;51.684;5.142;2023-02-05T08:03:11;15.80;;;1.60;;
67839;SDS011;54636;51.684;5.142;2023-02-05T08:05:37;11.23;;;2.20;;
67839;SDS011;54636;51.684;5.142;2023-02-05T08:08:04;13.68;;;2.72;;
67839;SDS011;54636;51.684;5.142;2023-02-05T08:10:30;13.70;;;1.98;;
67839;SDS011;54636;51.684;5.142;2023-02-05T08:12:56;14.57;;;3.30;;
67839;SDS011;54636;51.684;5.142;2023-02-05T08:15:21;14.18;;;2.05;;
67839;SDS011;54636;51.684;5.142;2023-02-05T08:17:46;12.93;;;2.60;;
67839;SDS011;54636;51.684;5.142;2023-02-05T08:20:12;15.43;;;2.13;;
67839;SDS011;54636;51.684;5.142;2023-02-05T08:22:38;11.32;;;2.05;;
67839;SDS011;54636;51.684;5.142;2023-02-05T08:25:06;12.43;;;2.67;;
67839;SDS011;54636;51.684;5.142;2023-02-05T08:27:34;11.32;;;2.03;;
67839;SDS011;54636;51.684;5.142;2023-02-05T08:30:02;15.65;;;2.60;;
67839;SDS011;54636;51.684;5.142;2023-02-05T08:32:34;14.82;;;2.28;;
67839;SDS011;54636;51.684;5.142;2023-02-05T08:35:00;16.35;;;1.88;;
67839;SDS011;54636;51.684;5.142;2023-02-05T08:37:25;14.90;;;3.00;;
67839;SDS011;54636;51.684;5.142;2023-02-05T08:39:51;17.05;;;2.45;;
67839;SDS011;54636;51.684;5.142;2023-02-05T08:42:17;12.95;;;2.30;;
67839;SDS011;54636;51.684;5.142;2023-02-05T08:44:43;18.42;;;2.50;;
67839;SDS011;54636;51.684;5.142;2023-02-05T08:47:08;19.25;;;2.92;;
67839;SDS011;54636;51.684;5.142;2023-02-05T08:49:34;22.85;;;3.08;;
67839;SDS011;54636;51.684;5.142;2023-02-05T08:51:59;14.75;;;2.88;;
67839;SDS011;54636;51.684;5.142;2023-02-05T08:54:25;20.50;;;3.65;;
67839;SDS011;54636;51.684;5.142;2023-02-05T08:56:51;19.73;;;2.63;;
67839;SDS011;54636;51.684;5.142;2023-02-05T08:59:16;19.33;;;3.83;;
67839;SDS011;54636;51.684;5.142;2023-02-05T09:01:42;17.35;;;3.30;;
67839;SDS011;54636;51.684;5.142;2023-02-05T09:04:12;22.67;;;3.33;;
67839;SDS011;54636;51.684;5.142;2023-02-05T09:06:39;18.23;;;3.95;;
67839;SDS011;54636;51.684;5.142;2023-02-05T09:09:04;36.88;;;4.53;;
67839;SDS011;54636;51.684;5.142;2023-02-05T09:11:30;24.33;;;4.38;;
67839;SDS011;54636;51.684;5.142;2023-02-05T09:13:56;30.30;;;4.18;;
67839;SDS011;54636;51.684;5.142;2023-02-05T09:16:22;30.80;;;4.28;;
67839;SDS011;54636;51.684;5.142;2023-02-05T09:18:48;20.83;;;4.05;;
67839;SDS011;54636;51.684;5.142;2023-02-05T09:21:14;22.75;;;4.80;;
67839;SDS011;54636;51.684;5.142;2023-02-05T09:23:39;25.05;;;4.13;;
67839;SDS011;54636;51.684;5.142;2023-02-05T09:26:04;28.20;;;4.13;;
67839;SDS011;54636;51.684;5.142;2023-02-05T09:28:31;23.45;;;4.18;;
67839;SDS011;54636;51.684;5.142;2023-02-05T09:30:56;18.23;;;3.97;;
67839;SDS011;54636;51.684;5.142;2023-02-05T09:33:22;26.75;;;4.38;;
67839;SDS011;54636;51.684;5.142;2023-02-05T09:35:47;18.50;;;4.03;;
67839;SDS011;54636;51.684;5.142;2023-02-05T09:38:13;23.83;;;4.32;;
67839;SDS011;54636;51.684;5.142;2023-02-05T09:40:56;29.25;;;3.58;;
67839;SDS011;54636;51.684;5.142;2023-02-05T09:52:23;20.67;;;4.30;;
67839;SDS011;54636;51.684;5.142;2023-02-05T09:54:56;22.02;;;4.47;;
67839;SDS011;54636;51.684;5.142;2023-02-05T09:57:36;35.63;;;5.10;;
67839;SDS011;54636;51.684;5.142;2023-02-05T10:00:05;27.80;;;4.32;;
67839;SDS011;54636;51.684;5.142;2023-02-05T10:05:25;29.13;;;3.95;;
67839;SDS011;54636;51.684;5.142;2023-02-05T10:10:44;21.63;;;4.22;;
67839;SDS011;54636;51.684;5.142;2023-02-05T10:21:39;21.65;;;5.50;;
67839;SDS011;54636;51.684;5.142;2023-02-05T10:26:50;22.73;;;4.00;;
67839;SDS011;54636;51.684;5.142;2023-02-05T10:29:21;30.27;;;4.15;;
67839;SDS011;54636;51.684;5.142;2023-02-05T10:38:21;19.85;;;3.33;;
67839;SDS011;54636;51.684;5.142;2023-02-05T10:40:50;22.38;;;4.28;;
67839;SDS011;54636;51.684;5.142;2023-02-05T10:45:51;18.52;;;4.85;;
67839;SDS011;54636;51.684;5.142;2023-02-05T10:48:23;24.20;;;4.13;;
67839;SDS011;54636;51.684;5.142;2023-02-05T10:51:04;21.95;;;4.47;;
67839;SDS011;54636;51.684;5.142;2023-02-05T10:53:32;17.90;;;3.92;;
67839;SDS011;54636;51.684;5.142;2023-02-05T10:56:00;29.08;;;4.88;;
67839;SDS011;54636;51.684;5.142;2023-02-05T11:01:21;25.02;;;4.68;;
67839;SDS011;54636;51.684;5.142;2023-02-05T11:06:13;21.23;;;4.03;;
67839;SDS011;54636;51.684;5.142;2023-02-05T11:08:40;19.10;;;3.40;;
67839;SDS011;54636;51.684;5.142;2023-02-05T11:11:15;17.00;;;4.05;;
67839;SDS011;54636;51.684;5.142;2023-02-05T11:13:47;22.77;;;4.82;;
67839;SDS011;54636;51.684;5.142;2023-02-05T11:16:17;21.23;;;3.25;;
67839;SDS011;54636;51.684;5.142;2023-02-05T11:18:43;23.13;;;3.92;;
67839;SDS011;54636;51.684;5.142;2023-02-05T11:21:11;25.30;;;4.25;;
67839;SDS011;54636;51.684;5.142;2023-02-05T11:23:37;23.35;;;4.00;;
67839;SDS011;54636;51.684;5.142;2023-02-05T11:28:44;21.02;;;3.65;;
67839;SDS011;54636;51.684;5.142;2023-02-05T11:31:22;24.45;;;4.40;;
67839;SDS011;54636;51.684;5.142;2023-02-05T11:33:50;16.73;;;3.27;;
67839;SDS011;54636;51.684;5.142;2023-02-05T11:36:22;30.67;;;4.45;;
67839;SDS011;54636;51.684;5.142;2023-02-05T11:41:28;23.50;;;3.70;;
67839;SDS011;54636;51.684;5.142;2023-02-05T11:44:25;18.50;;;3.92;;
67839;SDS011;54636;51.684;5.142;2023-02-05T11:46:52;21.33;;;3.30;;
67839;SDS011;54636;51.684;5.142;2023-02-05T11:49:23;11.10;;;2.63;;
67839;SDS011;54636;51.684;5.142;2023-02-05T11:51:55;26.90;;;4.75;;
67839;SDS011;54636;51.684;5.142;2023-02-05T11:54:25;16.05;;;3.28;;
67839;SDS011;54636;51.684;5.142;2023-02-05T11:59:56;22.98;;;4.05;;
67839;SDS011;54636;51.684;5.142;2023-02-05T12:08:02;9.38;;;2.97;;
67839;SDS011;54636;51.684;5.142;2023-02-05T12:10:38;19.17;;;3.42;;
67839;SDS011;54636;51.684;5.142;2023-02-05T12:18:53;20.70;;;4.03;;
67839;SDS011;54636;51.684;5.142;2023-02-05T12:21:44;18.48;;;4.35;;
67839;SDS011;54636;51.684;5.142;2023-02-05T12:29:56;24.80;;;4.13;;
67839;SDS011;54636;51.684;5.142;2023-02-05T12:38:23;23.08;;;4.43;;
67839;SDS011;54636;51.684;5.142;2023-02-05T12:43:39;20.17;;;3.33;;
67839;SDS011;54636;51.684;5.142;2023-02-05T12:51:40;20.70;;;4.00;;
67839;SDS011;54636;51.684;5.142;2023-02-05T13:00:18;16.65;;;3.58;;
67839;SDS011;54636;51.684;5.142;2023-02-05T13:05:27;21.33;;;3.20;;
67839;SDS011;54636;51.684;5.142;2023-02-05T13:08:02;22.02;;;3.40;;
67839;SDS011;54636;51.684;5.142;2023-02-05T13:10:42;20.48;;;4.40;;
67839;SDS011;54636;51.684;5.142;2023-02-05T13:13:32;15.77;;;3.40;;
67839;SDS011;54636;51.684;5.142;2023-02-05T13:16:05;24.08;;;3.47;;
67839;SDS011;54636;51.684;5.142;2023-02-05T13:18:42;28.52;;;5.13;;
67839;SDS011;54636;51.684;5.142;2023-02-05T13:21:15;26.27;;;4.25;;
67839;SDS011;54636;51.684;5.142;2023-02-05T13:24:13;17.58;;;3.47;;
67839;SDS011;54636;51.684;5.142;2023-02-05T13:27:20;22.73;;;4.13;;
67839;SDS011;54636;51.684;5.142;2023-02-05T13:30:24;23.25;;;4.32;;
67839;SDS011;54636;51.684;5.142;2023-02-05T13:33:03;18.52;;;4.20;;
67839;SDS011;54636;51.684;5.142;2023-02-05T13:35:33;28.08;;;4.53;;
67839;SDS011;54636;51.684;5.142;2023-02-05T13:38:13;19.20;;;3.67;;
67839;SDS011;54636;51.684;5.142;2023-02-05T13:46:28;14.82;;;2.53;;
67839;SDS011;54636;51.684;5.142;2023-02-05T13:49:06;24.45;;;4.05;;
67839;SDS011;54636;51.684;5.142;2023-02-05T13:56:54;20.80;;;4.22;;
67839;SDS011;54636;51.684;5.142;2023-02-05T13:59:37;19.55;;;4.68;;
67839;SDS011;54636;51.684;5.142;2023-02-05T14:04:59;28.40;;;4.85;;
67839;SDS011;54636;51.684;5.142;2023-02-05T14:07:28;23.60;;;4.47;;
67839;SDS011;54636;51.684;5.142;2023-02-05T14:09:57;11.40;;;3.08;;
67839;SDS011;54636;51.684;5.142;2023-02-05T14:12:35;9.07;;;2.90;;
67839;SDS011;54636;51.684;5.142;2023-02-05T14:22:59;31.50;;;4.68;;
67839;SDS011;54636;51.684;5.142;2023-02-05T14:30:52;29.67;;;5.18;;
67839;SDS011;54636;51.684;5.142;2023-02-05T14:38:46;24.85;;;3.47;;
67839;SDS011;54636;51.684;5.142;2023-02-05T14:41:15;16.88;;;4.20;;
67839;SDS011;54636;51.684;5.142;2023-02-05T14:43:44;20.02;;;4.55;;
67839;SDS011;54636;51.684;5.142;2023-02-05T14:48:43;24.90;;;4.50;;
67839;SDS011;54636;51.684;5.142;2023-02-05T14:51:20;32.53;;;5.00;;
67839;SDS011;54636;51.684;5.142;2023-02-05T14:53:58;28.52;;;5.50;;
67839;SDS011;54636;51.684;5.142;2023-02-05T14:56:33;21.00;;;4.18;;
67839;SDS011;54636;51.684;5.142;2023-02-05T14:59:06;28.58;;;5.15;;
67839;SDS011;54636;51.684;5.142;2023-02-05T15:01:57;21.20;;;4.03;;
67839;SDS011;54636;51.684;5.142;2023-02-05T15:06:56;27.65;;;8.75;;
67839;SDS011;54636;51.684;5.142;2023-02-05T15:09:45;26.73;;;5.75;;
67839;SDS011;54636;51.684;5.142;2023-02-05T15:12:32;25.17;;;4.47;;
67839;SDS011;54636;51.684;5.142;2023-02-05T15:15:24;23.50;;;3.60;;
67839;SDS011;54636;51.684;5.142;2023-02-05T15:17:55;28.23;;;5.65;;
67839;SDS011;54636;51.684;5.142;2023-02-05T15:20:27;28.27;;;5.78;;
67839;SDS011;54636;51.684;5.142;2023-02-05T15:23:00;33.87;;;6.20;;
67839;SDS011;54636;51.684;5.142;2023-02-05T15:25:36;27.75;;;8.90;;
67839;SDS011;54636;51.684;5.142;2023-02-05T15:28:12;29.70;;;7.50;;
67839;SDS011;54636;51.684;5.142;2023-02-05T15:30:52;21.23;;;3.97;;
67839;SDS011;54636;51.684;5.142;2023-02-05T15:33:44;46.70;;;14.57;;
67839;SDS011;54636;51.684;5.142;2023-02-05T15:36:23;32.85;;;5.05;;
67839;SDS011;54636;51.684;5.142;2023-02-05T15:41:43;34.28;;;7.35;;
67839;SDS011;54636;51.684;5.142;2023-02-05T15:44:21;62.17;;;25.33;;
67839;SDS011;54636;51.684;5.142;2023-02-05T15:46:50;46.45;;;18.38;;
67839;SDS011;54636;51.684;5.142;2023-02-05T15:49:17;23.42;;;4.88;;
67839;SDS011;54636;51.684;5.142;2023-02-05T15:51:45;30.40;;;6.47;;
67839;SDS011;54636;51.684;5.142;2023-02-05T15:54:13;23.17;;;5.93;;
67839;SDS011;54636;51.684;5.142;2023-02-05T15:56:44;26.80;;;4.57;;
67839;SDS011;54636;51.684;5.142;2023-02-05T15:59:16;32.47;;;6.72;;
67839;SDS011;54636;51.684;5.142;2023-02-05T16:02:02;44.25;;;11.82;;
67839;SDS011;54636;51.684;5.142;2023-02-05T16:07:00;32.75;;;7.82;;
67839;SDS011;54636;51.684;5.142;2023-02-05T16:09:27;28.92;;;8.32;;
67839;SDS011;54636;51.684;5.142;2023-02-05T16:11:54;34.67;;;6.78;;
67839;SDS011;54636;51.684;5.142;2023-02-05T16:14:21;58.72;;;28.88;;
67839;SDS011;54636;51.684;5.142;2023-02-05T16:16:55;32.20;;;8.15;;
67839;SDS011;54636;51.684;5.142;2023-02-05T16:19:40;46.22;;;25.33;;
67839;SDS011;54636;51.684;5.142;2023-02-05T16:22:27;49.55;;;20.50;;
67839;SDS011;54636;51.684;5.142;2023-02-05T16:25:32;46.35;;;19.55;;
67839;SDS011;54636;51.684;5.142;2023-02-05T16:28:19;26.15;;;5.45;;
67839;SDS011;54636;51.684;5.142;2023-02-05T16:31:00;50.25;;;19.95;;
67839;SDS011;54636;51.684;5.142;2023-02-05T16:36:02;30.65;;;6.07;;
67839;SDS011;54636;51.684;5.142;2023-02-05T16:40:58;47.25;;;11.55;;
67839;SDS011;54636;51.684;5.142;2023-02-05T16:43:41;44.00;;;12.20;;
67839;SDS011;54636;51.684;5.142;2023-02-05T16:48:37;29.80;;;5.68;;
67839;SDS011;54636;51.684;5.142;2023-02-05T16:51:11;43.35;;;7.38;;
67839;SDS011;54636;51.684;5.142;2023-02-05T16:53:49;33.28;;;7.40;;
67839;SDS011;54636;51.684;5.142;2023-02-05T16:56:22;55.72;;;22.90;;
67839;SDS011;54636;51.684;5.142;2023-02-05T16:58:52;49.85;;;17.10;;
67839;SDS011;54636;51.684;5.142;2023-02-05T17:01:23;41.83;;;6.37;;
67839;SDS011;54636;51.684;5.142;2023-02-05T17:03:54;67.47;;;22.23;;
67839;SDS011;54636;51.684;5.142;2023-02-05T17:06:20;88.45;;;37.65;;
67839;SDS011;54636;51.684;5.142;2023-02-05T17:08:50;49.22;;;11.73;;
67839;SDS011;54636;51.684;5.142;2023-02-05T17:11:40;59.85;;;20.20;;
67839;SDS011;54636;51.684;5.142;2023-02-05T17:16:40;47.58;;;12.32;;
67839;SDS011;54636;51.684;5.142;2023-02-05T17:19:23;33.70;;;7.38;;
67839;SDS011;54636;51.684;5.142;2023-02-05T17:24:38;35.13;;;7.72;;
67839;SDS011;54636;51.684;5.142;2023-02-05T17:27:03;41.75;;;8.38;;
67839;SDS011;54636;51.684;5.142;2023-02-05T17:29:29;39.30;;;7.00;;
67839;SDS011;54636;51.684;5.142;2023-02-05T17:31:58;31.15;;;6.82;;
67839;SDS011;54636;51.684;5.142;2023-02-05T17:34:23;47.35;;;8.93;;
67839;SDS011;54636;51.684;5.142;2023-02-05T17:36:49;44.63;;;7.28;;
67839;SDS011;54636;51.684;5.142;2023-02-05T17:39:15;45.58;;;7.78;;